Time;durP1;ratioP1;P1;durP2;ratioP2;P2;SDS_P1;SDS_P2;PMS_P1;PMS_P2;Temp;Humidity;BMP_temperature;BMP_pressure;BME280_temperature;BME280_humidity;BME280_pressure;Samples;Min_cycle;Max_cycle;Signal;HPM_P1;HPM_P2
2022/03/02 00:01:44;;;;;;;28.67;19.48;;;;;;;;;;5092954;28;20043;-62
2022/03/02 00:04:10;;;;;;;31.88;20.02;;;;;;;;;;5093329;28;20093;-61
2022/03/02 00:06:36;;;;;;;29.60;18.88;;;;;;;;;;5093019;28;20040;-61
2022/03/02 00:09:03;;;;;;;28.60;17.88;;;;;;;;;;5088894;28;20052;-61
2022/03/02 00:11:30;;;;;;;29.30;18.42;;;;;;;;;;5093192;28;20040;-61
2022/03/02 00:13:58;;;;;;;27.23;17.98;;;;;;;;;;5092448;28;20059;-61
2022/03/02 00:16:24;;;;;;;28.60;18.55;;;;;;;;;;5092802;28;20397;-62
2022/03/02 00:18:50;;;;;;;29.27;18.30;;;;;;;;;;5092077;28;20040;-62
2022/03/02 00:21:18;;;;;;;29.95;19.10;;;;;;;;;;5091554;28;20486;-61
2022/03/02 00:23:44;;;;;;;27.02;18.40;;;;;;;;;;5092590;28;20043;-62
2022/03/02 00:26:10;;;;;;;29.73;19.20;;;;;;;;;;5092688;28;20386;-62
2022/03/02 00:28:36;;;;;;;28.63;18.05;;;;;;;;;;5092317;28;20047;-62
2022/03/02 00:31:02;;;;;;;31.25;18.40;;;;;;;;;;5091839;28;20044;-61
2022/03/02 00:33:28;;;;;;;28.83;18.13;;;;;;;;;;5090380;28;20042;-61
2022/03/02 00:35:54;;;;;;;30.40;19.35;;;;;;;;;;5092021;28;20048;-62
2022/03/02 00:38:20;;;;;;;29.08;18.38;;;;;;;;;;5092046;28;20046;-61
2022/03/02 00:40:47;;;;;;;30.13;17.77;;;;;;;;;;5091984;28;20082;-62
2022/03/02 00:43:13;;;;;;;27.88;18.17;;;;;;;;;;5092585;28;20062;-62
2022/03/02 00:45:39;;;;;;;33.33;18.95;;;;;;;;;;5092408;28;20042;-62
2022/03/02 00:48:06;;;;;;;29.55;19.27;;;;;;;;;;5091997;28;20509;-61
2022/03/02 00:50:32;;;;;;;27.95;18.83;;;;;;;;;;5091856;28;20397;-61
2022/03/02 00:52:59;;;;;;;29.58;19.73;;;;;;;;;;5092194;28;20147;-62
2022/03/02 00:55:25;;;;;;;25.35;17.02;;;;;;;;;;5090707;28;20499;-61
2022/03/02 00:57:51;;;;;;;28.88;19.23;;;;;;;;;;5092402;28;20032;-61
2022/03/02 01:00:18;;;;;;;30.63;19.27;;;;;;;;;;5092247;28;20485;-61
2022/03/02 01:02:46;;;;;;;29.92;18.83;;;;;;;;;;5092012;28;20097;-61
2022/03/02 01:05:12;;;;;;;29.73;19.58;;;;;;;;;;5091795;28;20096;-62
2022/03/02 01:07:38;;;;;;;27.50;18.25;;;;;;;;;;5092151;28;20040;-61
2022/03/02 01:10:05;;;;;;;28.92;18.25;;;;;;;;;;5090284;28;20040;-61
2022/03/02 01:12:31;;;;;;;26.23;17.67;;;;;;;;;;5091980;28;20394;-62
2022/03/02 01:14:57;;;;;;;28.77;19.20;;;;;;;;;;5091576;28;20040;-61
2022/03/02 01:17:23;;;;;;;29.55;18.88;;;;;;;;;;5091094;28;20394;-61
2022/03/02 01:19:50;;;;;;;28.70;19.45;;;;;;;;;;5091355;28;20386;-64
2022/03/02 01:22:16;;;;;;;29.35;19.90;;;;;;;;;;5090884;28;20522;-61
2022/03/02 01:24:43;;;;;;;28.65;18.90;;;;;;;;;;5091221;28;20036;-61
2022/03/02 01:27:09;;;;;;;27.45;18.48;;;;;;;;;;5091388;28;20501;-61
2022/03/02 01:29:35;;;;;;;29.10;19.17;;;;;;;;;;5091593;28;20548;-61
2022/03/02 01:32:03;;;;;;;28.35;17.83;;;;;;;;;;5091252;28;20524;-61
2022/03/02 01:34:29;;;;;;;30.45;19.80;;;;;;;;;;5090374;28;20128;-61
2022/03/02 01:36:55;;;;;;;28.67;18.83;;;;;;;;;;5091069;28;20105;-62
2022/03/02 01:39:21;;;;;;;31.63;19.67;;;;;;;;;;5090911;28;20114;-61
2022/03/02 01:41:47;;;;;;;30.10;19.65;;;;;;;;;;5090426;28;20044;-64
2022/03/02 01:44:13;;;;;;;30.60;18.85;;;;;;;;;;5090740;28;20036;-61
2022/03/02 01:46:39;;;;;;;28.40;19.10;;;;;;;;;;5091186;28;20040;-61
2022/03/02 01:49:06;;;;;;;29.17;18.42;;;;;;;;;;5091372;28;20043;-61
2022/03/02 01:51:32;;;;;;;30.15;19.92;;;;;;;;;;5091099;28;20195;-61
2022/03/02 01:53:58;;;;;;;31.63;19.58;;;;;;;;;;5091123;28;20040;-62
2022/03/02 01:56:24;;;;;;;32.35;19.77;;;;;;;;;;5090672;28;20118;-62
2022/03/02 01:58:50;;;;;;;29.10;19.20;;;;;;;;;;5088559;28;20394;-61
2022/03/02 02:01:16;;;;;;;30.65;19.27;;;;;;;;;;5090785;28;20028;-61
2022/03/02 02:03:43;;;;;;;29.50;18.75;;;;;;;;;;5090568;28;20478;-61
2022/03/02 02:06:09;;;;;;;30.63;19.30;;;;;;;;;;5090905;28;20123;-62
2022/03/02 02:08:35;;;;;;;31.65;18.85;;;;;;;;;;5090339;28;20040;-61
2022/03/02 02:11:02;;;;;;;30.77;20.33;;;;;;;;;;5090580;28;20040;-62
2022/03/02 02:13:30;;;;;;;29.55;19.70;;;;;;;;;;5090295;28;20115;-61
2022/03/02 02:15:56;;;;;;;27.70;18.75;;;;;;;;;;5090418;28;20044;-61
2022/03/02 02:18:22;;;;;;;30.38;19.80;;;;;;;;;;5090291;28;20039;-61
2022/03/02 02:20:48;;;;;;;31.25;19.48;;;;;;;;;;5090406;28;20040;-61
2022/03/02 02:23:14;;;;;;;28.90;19.83;;;;;;;;;;5090650;28;20035;-61
2022/03/02 02:25:41;;;;;;;29.60;19.10;;;;;;;;;;5090837;28;20080;-64
2022/03/02 02:28:10;;;;;;;31.83;19.30;;;;;;;;;;5090622;28;20039;-61
2022/03/02 02:30:37;;;;;;;31.60;19.83;;;;;;;;;;5090386;28;20032;-62
2022/03/02 02:33:04;;;;;;;29.70;18.83;;;;;;;;;;5089392;28;20036;-62
2022/03/02 02:35:30;;;;;;;32.08;20.10;;;;;;;;;;5090210;28;20063;-62
2022/03/02 02:37:58;;;;;;;34.60;19.83;;;;;;;;;;5090602;28;20055;-62
2022/03/02 02:40:24;;;;;;;30.15;19.25;;;;;;;;;;5090461;28;20124;-62
2022/03/02 02:42:50;;;;;;;31.58;20.30;;;;;;;;;;5090306;28;20075;-62
2022/03/02 02:45:20;;;;;;;29.95;19.60;;;;;;;;;;5090059;28;20390;-62
2022/03/02 02:47:46;;;;;;;30.10;19.25;;;;;;;;;;5090231;28;20368;-62
2022/03/02 02:50:16;;;;;;;33.67;20.15;;;;;;;;;;5090396;28;20086;-62
2022/03/02 02:52:42;;;;;;;29.33;19.02;;;;;;;;;;5089979;28;20036;-62
2022/03/02 02:55:09;;;;;;;32.25;19.67;;;;;;;;;;5094269;28;20047;-61
2022/03/02 02:57:35;;;;;;;30.38;19.58;;;;;;;;;;5094589;28;20486;-62
2022/03/02 03:00:01;;;;;;;32.50;20.88;;;;;;;;;;5094287;28;20044;-61
2022/03/02 03:02:27;;;;;;;30.50;20.10;;;;;;;;;;5094149;28;20079;-62
2022/03/02 03:04:53;;;;;;;30.42;20.52;;;;;;;;;;5093834;28;20043;-62
2022/03/02 03:07:19;;;;;;;31.42;19.90;;;;;;;;;;5094386;28;20047;-62
2022/03/02 03:09:45;;;;;;;30.90;19.35;;;;;;;;;;5094183;28;20040;-61
2022/03/02 03:12:11;;;;;;;30.85;19.38;;;;;;;;;;5094281;28;20032;-62
2022/03/02 03:14:37;;;;;;;33.40;21.25;;;;;;;;;;5094249;28;20497;-62
2022/03/02 03:17:04;;;;;;;33.85;19.83;;;;;;;;;;5093633;28;20032;-62
2022/03/02 03:19:30;;;;;;;32.08;20.25;;;;;;;;;;5094366;28;20430;-62
2022/03/02 03:21:56;;;;;;;31.25;19.42;;;;;;;;;;5094107;28;20119;-62
2022/03/02 03:24:22;;;;;;;31.15;20.13;;;;;;;;;;5093652;28;20042;-62
2022/03/02 03:26:47;;;;;;;35.28;21.30;;;;;;;;;;5093392;28;20044;-62
2022/03/02 03:29:13;;;;;;;33.10;20.40;;;;;;;;;;5094165;28;20081;-62
2022/03/02 03:31:39;;;;;;;32.85;19.33;;;;;;;;;;5093722;28;20483;-62
2022/03/02 03:34:05;;;;;;;30.48;19.70;;;;;;;;;;5093664;28;20044;-63
2022/03/02 03:36:31;;;;;;;32.20;19.35;;;;;;;;;;5093613;28;20056;-62
2022/03/02 03:38:58;;;;;;;29.55;19.92;;;;;;;;;;5093447;28;20436;-62
2022/03/02 03:41:24;;;;;;;31.13;19.67;;;;;;;;;;5093843;28;20470;-62
2022/03/02 03:43:50;;;;;;;32.17;20.15;;;;;;;;;;5093585;28;20127;-62
2022/03/02 03:46:16;;;;;;;33.58;19.90;;;;;;;;;;5093550;28;20401;-62
2022/03/02 03:48:42;;;;;;;35.15;21.02;;;;;;;;;;5093410;28;20051;-61
2022/03/02 03:51:08;;;;;;;32.20;20.33;;;;;;;;;;5090285;28;20048;-62
2022/03/02 03:53:34;;;;;;;31.88;20.38;;;;;;;;;;5093120;28;20036;-62
2022/03/02 03:56:00;;;;;;;33.78;19.55;;;;;;;;;;5091774;28;20055;-62
2022/03/02 03:58:26;;;;;;;31.90;20.20;;;;;;;;;;5093328;28;20493;-62
2022/03/02 04:00:52;;;;;;;37.25;21.48;;;;;;;;;;5091798;28;20047;-61
2022/03/02 04:03:18;;;;;;;31.83;20.45;;;;;;;;;;5092552;28;20040;-62
2022/03/02 04:05:44;;;;;;;32.80;20.92;;;;;;;;;;5091729;28;20118;-62
2022/03/02 04:08:11;;;;;;;33.30;20.58;;;;;;;;;;5091418;28;20093;-62
2022/03/02 04:10:37;;;;;;;34.75;20.95;;;;;;;;;;5091513;28;20047;-62
2022/03/02 04:13:03;;;;;;;34.70;21.45;;;;;;;;;;5092906;28;20040;-62
2022/03/02 04:15:29;;;;;;;33.08;20.42;;;;;;;;;;5093083;28;20446;-62
2022/03/02 04:17:55;;;;;;;34.35;21.25;;;;;;;;;;5091858;28;20532;-62
2022/03/02 04:20:21;;;;;;;36.67;21.45;;;;;;;;;;5092631;28;20032;-61
2022/03/02 04:22:47;;;;;;;34.75;21.13;;;;;;;;;;5092731;28;20124;-62
2022/03/02 04:25:13;;;;;;;35.33;22.40;;;;;;;;;;5092797;28;20111;-62
2022/03/02 04:27:40;;;;;;;33.50;20.42;;;;;;;;;;5092753;28;20040;-62
2022/03/02 04:30:07;;;;;;;39.00;22.02;;;;;;;;;;5092484;28;20040;-61
2022/03/02 04:32:33;;;;;;;36.53;21.38;;;;;;;;;;5091649;28;20051;-62
2022/03/02 04:34:59;;;;;;;36.60;21.42;;;;;;;;;;5092709;28;20483;-61
2022/03/02 04:37:25;;;;;;;36.35;21.77;;;;;;;;;;5092211;28;20052;-62
2022/03/02 04:39:51;;;;;;;37.25;21.90;;;;;;;;;;5092899;28;20505;-62
2022/03/02 04:42:17;;;;;;;34.83;21.65;;;;;;;;;;5092479;28;20032;-62
2022/03/02 04:44:43;;;;;;;35.28;20.77;;;;;;;;;;5092195;28;20044;-62
2022/03/02 04:47:09;;;;;;;37.70;21.80;;;;;;;;;;5091977;28;20505;-61
2022/03/02 04:49:35;;;;;;;37.28;22.33;;;;;;;;;;5092433;28;20035;-62
2022/03/02 04:52:01;;;;;;;35.60;21.42;;;;;;;;;;5092143;28;20051;-62
2022/03/02 04:57:12;;;;;;;33.00;20.45;;;;;;;;;;5091501;28;20036;-61
2022/03/02 04:59:38;;;;;;;39.30;22.10;;;;;;;;;;5091342;28;20067;-62
2022/03/02 05:02:05;;;;;;;38.00;22.50;;;;;;;;;;5091906;28;20525;-61
2022/03/02 05:04:31;;;;;;;36.22;21.45;;;;;;;;;;5091212;28;20506;-62
2022/03/02 05:06:57;;;;;;;39.17;22.02;;;;;;;;;;5091489;28;20375;-61
2022/03/02 05:09:23;;;;;;;37.22;22.50;;;;;;;;;;5091908;28;20063;-62
2022/03/02 05:11:49;;;;;;;36.85;22.08;;;;;;;;;;5091747;28;20035;-62
2022/03/02 05:14:15;;;;;;;35.45;22.48;;;;;;;;;;5092260;28;20036;-62
2022/03/02 05:16:41;;;;;;;36.00;21.50;;;;;;;;;;5090724;28;20394;-62
2022/03/02 05:19:07;;;;;;;37.70;22.90;;;;;;;;;;5091840;28;20059;-61
2022/03/02 05:21:33;;;;;;;37.15;22.35;;;;;;;;;;5091697;28;20050;-62
2022/03/02 05:23:59;;;;;;;37.58;22.27;;;;;;;;;;5091518;28;20494;-62
2022/03/02 05:26:25;;;;;;;37.95;23.10;;;;;;;;;;5090767;28;20055;-61
2022/03/02 05:28:51;;;;;;;40.75;22.50;;;;;;;;;;5091294;28;20036;-62
2022/03/02 05:31:20;;;;;;;37.30;22.15;;;;;;;;;;5091265;28;20553;-61
2022/03/02 05:33:46;;;;;;;38.22;22.27;;;;;;;;;;5091427;28;20052;-61
2022/03/02 05:36:12;;;;;;;35.97;21.88;;;;;;;;;;5091016;28;20058;-62
2022/03/02 05:38:38;;;;;;;35.25;22.27;;;;;;;;;;5090960;28;20048;-61
2022/03/02 05:41:04;;;;;;;40.92;24.00;;;;;;;;;;5087553;28;20549;-61
2022/03/02 05:43:30;;;;;;;37.30;21.67;;;;;;;;;;5087274;28;20165;-62
2022/03/02 05:45:56;;;;;;;33.42;21.55;;;;;;;;;;5090769;28;20075;-62
2022/03/02 05:48:22;;;;;;;36.53;21.35;;;;;;;;;;5091245;28;20082;-62
2022/03/02 05:50:48;;;;;;;37.13;23.90;;;;;;;;;;5090904;28;20067;-62
2022/03/02 05:53:14;;;;;;;38.08;22.40;;;;;;;;;;5090693;28;20078;-62
2022/03/02 05:55:40;;;;;;;37.38;21.98;;;;;;;;;;5089791;28;20428;-62
2022/03/02 05:58:06;;;;;;;37.92;23.02;;;;;;;;;;5090099;28;20069;-62
2022/03/02 06:00:32;;;;;;;36.03;21.95;;;;;;;;;;5087986;28;20409;-62
2022/03/02 06:02:58;;;;;;;38.92;22.42;;;;;;;;;;5088973;28;20044;-62
2022/03/02 06:05:24;;;;;;;35.17;21.95;;;;;;;;;;5091043;28;20051;-62
2022/03/02 06:07:50;;;;;;;36.05;22.08;;;;;;;;;;5089096;28;20070;-62
2022/03/02 06:10:16;;;;;;;36.20;22.45;;;;;;;;;;5091047;28;20040;-62
2022/03/02 06:12:42;;;;;;;36.20;22.70;;;;;;;;;;5090403;28;20123;-63
2022/03/02 06:15:09;;;;;;;38.20;22.85;;;;;;;;;;5090952;28;20042;-62
2022/03/02 06:17:35;;;;;;;35.22;21.65;;;;;;;;;;5089506;28;20040;-62
2022/03/02 06:20:01;;;;;;;38.40;22.85;;;;;;;;;;5090489;28;20047;-62
2022/03/02 06:22:28;;;;;;;37.15;22.17;;;;;;;;;;5091074;28;20031;-62
2022/03/02 06:24:54;;;;;;;38.72;22.83;;;;;;;;;;5090596;28;20078;-62
2022/03/02 06:27:21;;;;;;;37.75;22.60;;;;;;;;;;5090336;28;20040;-62
2022/03/02 06:29:48;;;;;;;37.80;22.65;;;;;;;;;;5086805;28;20044;-62
2022/03/02 06:32:15;;;;;;;41.20;23.88;;;;;;;;;;5090426;28;20048;-62
2022/03/02 06:34:41;;;;;;;39.20;23.08;;;;;;;;;;5085298;28;20090;-62
2022/03/02 06:37:08;;;;;;;36.72;22.17;;;;;;;;;;5089792;28;20489;-63
2022/03/02 06:39:34;;;;;;;38.35;22.30;;;;;;;;;;5090476;28;20101;-62
2022/03/02 06:42:11;;;;;;;36.92;22.75;;;;;;;;;;5090196;28;20409;-62
2022/03/02 06:44:37;;;;;;;35.95;22.45;;;;;;;;;;5090665;28;20078;-63
2022/03/02 06:47:09;;;;;;;38.63;22.70;;;;;;;;;;5089028;28;20063;-62
2022/03/02 06:49:54;;;;;;;38.70;22.90;;;;;;;;;;5087977;28;20036;-62
2022/03/02 06:52:20;;;;;;;37.20;22.30;;;;;;;;;;5085111;28;20055;-62
2022/03/02 06:54:50;;;;;;;34.25;21.25;;;;;;;;;;5088741;28;20052;-62
2022/03/02 06:57:20;;;;;;;41.92;23.05;;;;;;;;;;5089629;28;20386;-62
2022/03/02 06:59:53;;;;;;;37.88;22.17;;;;;;;;;;5088900;28;20434;-62
2022/03/02 07:02:23;;;;;;;37.65;22.70;;;;;;;;;;5086164;28;20035;-62
2022/03/02 07:04:51;;;;;;;38.22;21.77;;;;;;;;;;5084324;28;20395;-63
2022/03/02 07:07:18;;;;;;;36.38;22.10;;;;;;;;;;5088178;28;20040;-62
2022/03/02 07:09:45;;;;;;;37.75;22.17;;;;;;;;;;5090093;28;20541;-63
2022/03/02 07:12:11;;;;;;;39.65;22.80;;;;;;;;;;5082030;28;20514;-62
2022/03/02 07:14:37;;;;;;;37.97;22.60;;;;;;;;;;5081747;28;20044;-62
2022/03/02 07:17:04;;;;;;;37.40;22.58;;;;;;;;;;5085338;28;20040;-62
2022/03/02 07:19:31;;;;;;;37.88;22.75;;;;;;;;;;5090159;28;20110;-62
2022/03/02 07:21:58;;;;;;;39.42;23.85;;;;;;;;;;5084012;28;20036;-62
2022/03/02 07:24:25;;;;;;;41.33;23.92;;;;;;;;;;5088970;28;20138;-62
2022/03/02 07:26:52;;;;;;;41.90;22.92;;;;;;;;;;5086105;28;20048;-62
2022/03/02 07:29:20;;;;;;;40.30;22.35;;;;;;;;;;5089566;28;20557;-62
2022/03/02 07:31:47;;;;;;;40.38;22.60;;;;;;;;;;5082315;28;20048;-62
2022/03/02 07:34:14;;;;;;;36.97;22.58;;;;;;;;;;5082120;28;20062;-62
2022/03/02 07:36:41;;;;;;;37.10;22.20;;;;;;;;;;5085834;28;20131;-62
2022/03/02 07:39:07;;;;;;;38.65;23.45;;;;;;;;;;5090177;28;20135;-62
2022/03/02 07:41:34;;;;;;;38.83;22.60;;;;;;;;;;5088810;28;20118;-62
2022/03/02 07:44:00;;;;;;;41.80;23.23;;;;;;;;;;5094545;28;20038;-62
2022/03/02 07:46:28;;;;;;;40.70;22.48;;;;;;;;;;5093656;28;20052;-62
2022/03/02 07:48:55;;;;;;;38.83;23.90;;;;;;;;;;5091364;28;20036;-62
2022/03/02 07:51:22;;;;;;;37.80;22.50;;;;;;;;;;5088379;28;20101;-62
2022/03/02 07:53:48;;;;;;;38.95;22.42;;;;;;;;;;5093472;28;20062;-62
2022/03/02 07:56:15;;;;;;;38.55;22.85;;;;;;;;;;5093050;28;20032;-62
2022/03/02 07:58:42;;;;;;;38.58;21.88;;;;;;;;;;5093039;28;20032;-62
2022/03/02 08:01:09;;;;;;;37.03;21.67;;;;;;;;;;5093498;28;20036;-62
2022/03/02 08:03:38;;;;;;;38.50;22.02;;;;;;;;;;5092866;28;20115;-62
2022/03/02 08:06:05;;;;;;;38.58;22.13;;;;;;;;;;5093362;28;20436;-63
2022/03/02 08:08:31;;;;;;;35.83;22.08;;;;;;;;;;5092348;28;20036;-62
2022/03/02 08:10:57;;;;;;;36.25;20.75;;;;;;;;;;5093126;28;20127;-62
2022/03/02 08:13:27;;;;;;;35.33;22.08;;;;;;;;;;5093100;28;20044;-62
2022/03/02 08:15:53;;;;;;;38.65;22.35;;;;;;;;;;5093130;28;20055;-62
2022/03/02 08:18:19;;;;;;;36.38;22.13;;;;;;;;;;5092701;28;20047;-62
2022/03/02 08:20:50;;;;;;;40.75;21.25;;;;;;;;;;5093066;28;20470;-62
2022/03/02 08:23:16;;;;;;;35.60;21.27;;;;;;;;;;5093014;28;20409;-62
2022/03/02 08:25:42;;;;;;;35.42;21.15;;;;;;;;;;5092778;28;20474;-63
2022/03/02 08:28:09;;;;;;;35.38;21.05;;;;;;;;;;5092627;28;20032;-62
2022/03/02 08:30:37;;;;;;;34.60;19.95;;;;;;;;;;5090673;28;20034;-62
2022/03/02 08:33:04;;;;;;;31.92;20.15;;;;;;;;;;5092820;28;20126;-62
2022/03/02 08:35:34;;;;;;;34.67;21.35;;;;;;;;;;5092803;28;20448;-62
2022/03/02 08:38:01;;;;;;;32.88;20.02;;;;;;;;;;5092474;28;20055;-62
2022/03/02 08:40:27;;;;;;;36.25;19.85;;;;;;;;;;5091188;28;20036;-63
2022/03/02 08:42:53;;;;;;;32.30;20.08;;;;;;;;;;5087937;28;20550;-62
2022/03/02 08:45:21;;;;;;;31.65;20.08;;;;;;;;;;5092649;28;20119;-62
2022/03/02 08:47:47;;;;;;;32.80;18.40;;;;;;;;;;5092549;28;20039;-62
2022/03/02 08:50:13;;;;;;;30.95;17.48;;;;;;;;;;5092357;28;20036;-62
2022/03/02 08:52:39;;;;;;;31.00;18.98;;;;;;;;;;5090664;28;20086;-62
2022/03/02 08:55:09;;;;;;;31.27;18.73;;;;;;;;;;5092186;28;20049;-62
2022/03/02 08:57:39;;;;;;;32.97;19.13;;;;;;;;;;5091993;28;20119;-62
2022/03/02 09:00:07;;;;;;;31.55;19.30;;;;;;;;;;5092329;28;20032;-62
2022/03/02 09:02:35;;;;;;;30.98;19.80;;;;;;;;;;5092401;28;20036;-62
2022/03/02 09:05:02;;;;;;;36.67;19.50;;;;;;;;;;5092401;28;20101;-62
2022/03/02 09:07:28;;;;;;;30.15;18.35;;;;;;;;;;5091413;28;20101;-62
2022/03/02 09:09:54;;;;;;;28.35;18.25;;;;;;;;;;5091631;28;20039;-62
2022/03/02 09:12:20;;;;;;;30.60;18.02;;;;;;;;;;5092378;28;20036;-62
2022/03/02 09:14:47;;;;;;;32.40;19.05;;;;;;;;;;5091813;28;20071;-63
2022/03/02 09:17:16;;;;;;;35.92;19.85;;;;;;;;;;5092023;28;20053;-62
2022/03/02 09:19:42;;;;;;;30.73;18.83;;;;;;;;;;5091326;28;20028;-62
2022/03/02 09:22:08;;;;;;;32.10;20.25;;;;;;;;;;5092166;28;20035;-62
2022/03/02 09:24:35;;;;;;;31.58;20.02;;;;;;;;;;5088088;28;20035;-62
2022/03/02 09:27:02;;;;;;;32.15;19.48;;;;;;;;;;5091881;28;20051;-62
2022/03/02 09:29:30;;;;;;;31.25;19.63;;;;;;;;;;5091715;28;20036;-62
2022/03/02 09:31:58;;;;;;;31.70;19.58;;;8.90;99.90;;;;;;5091587;28;20047;-62
2022/03/02 09:34:26;;;;;;;36.63;20.67;;;;;;;;;;5091303;28;20101;-62
2022/03/02 09:36:53;;;;;;;31.60;19.60;;;;;;;;;;5090869;28;20105;-62
2022/03/02 09:39:20;;;;;;;29.40;19.20;;;;;;;;;;5091407;28;20134;-63
2022/03/02 09:41:49;;;;;;;30.13;19.67;;;;;;;;;;5092134;28;20101;-62
2022/03/02 09:44:21;;;;;;;33.20;19.17;;;;;;;;;;5091370;28;20406;-63
2022/03/02 09:46:51;;;;;;;30.20;19.05;;;;;;;;;;5091405;28;20450;-62
2022/03/02 09:49:20;;;;;;;29.58;18.80;;;;;;;;;;5091561;28;20122;-62
2022/03/02 09:51:50;;;;;;;30.55;19.88;;;;;;;;;;5092028;28;20127;-62
2022/03/02 09:54:20;;;;;;;27.23;18.58;;;;;;;;;;5090740;28;20040;-62
2022/03/02 09:56:49;;;;;;;28.90;17.67;;;;;;;;;;5091218;28;20127;-62
2022/03/02 09:59:17;;;;;;;29.70;18.08;;;10.70;99.90;;;;;;5091156;28;20032;-62
2022/03/02 10:01:44;;;;;;;26.85;17.50;;;;;;;;;;5088616;28;20044;-63
2022/03/02 10:04:22;;;;;;;26.85;18.58;;;11.60;99.90;;;;;;5090801;28;20082;-63
2022/03/02 10:06:50;;;;;;;28.20;17.48;;;11.40;99.90;;;;;;5090947;28;20043;-62
2022/03/02 10:09:19;;;;;;;26.40;16.35;;;;;;;;;;5089410;28;20040;-63
2022/03/02 10:11:45;;;;;;;25.17;15.98;;;;;;;;;;5091086;28;20100;-63
2022/03/02 10:14:11;;;;;;;25.67;16.83;;;;;;;;;;5090782;28;20048;-63
2022/03/02 10:16:45;;;;;;;23.02;15.23;;;;;;;;;;5089282;28;20131;-62
2022/03/02 10:19:21;;;;;;;24.80;15.07;;;12.20;99.90;;;;;;5090464;28;20054;-63
2022/03/02 10:21:54;;;;;;;23.92;14.23;;;;;;;;;;5090874;28;20039;-62
2022/03/02 10:24:20;;;;;;;22.85;14.80;;;;;;;;;;5088940;28;21192;-62
2022/03/02 10:26:50;;;;;;;20.35;13.77;;;12.70;99.90;;;;;;5090649;28;20052;-62
2022/03/02 10:29:40;;;;;;;24.02;14.70;;;;;;;;;;5090350;28;20044;-63
2022/03/02 10:32:15;;;;;;;22.75;13.95;;;13.10;99.90;;;;;;5008186;28;20081;-62
2022/03/02 10:34:54;;;;;;;23.20;14.75;;;13.20;99.90;;;;;;5007750;28;20059;-62
2022/03/02 10:37:20;;;;;;;22.58;14.48;;;;;;;;;;4991211;28;20420;-63
2022/03/02 10:39:46;;;;;;;23.05;15.10;;;;;;;;;;5007065;28;20042;-63
2022/03/02 10:42:16;;;;;;;22.98;14.93;;;;;;;;;;5007509;28;20034;-63
2022/03/02 10:44:54;;;;;;;22.40;14.15;;;;;;;;;;5006816;28;20031;-62
2022/03/02 10:47:24;;;;;;;20.23;13.88;;;14.00;99.90;;;;;;5007640;28;20056;-63
2022/03/02 10:49:52;;;;;;;23.58;14.20;;;;;;;;;;5007741;28;20096;-63
2022/03/02 10:52:21;;;;;;;22.67;14.10;;;14.40;99.90;;;;;;5007886;28;20041;-63
2022/03/02 10:54:49;;;;;;;20.95;13.88;;;14.20;99.90;;;;;;5007811;28;20093;-63
2022/03/02 10:57:18;;;;;;;20.50;14.00;;;14.80;99.90;;;;;;4989562;28;20054;-63
2022/03/02 10:59:45;;;;;;;20.58;13.18;;;;;;;;;;5007876;28;20046;-63
2022/03/02 11:02:11;;;;;;;23.50;14.27;;;;;;;;;;5008160;28;20416;-63
2022/03/02 11:04:44;;;;;;;21.77;14.13;;;;;;;;;;5007782;28;20456;-63
2022/03/02 11:07:12;;;;;;;20.85;13.60;;;;;;;;;;5008174;28;20521;-63
2022/03/02 11:09:38;;;;;;;22.13;13.85;;;;;;;;;;5067862;28;20050;-63
2022/03/02 11:12:07;;;;;;;21.42;13.20;;;15.30;99.90;;;;;;5090316;28;20112;-63
2022/03/02 11:14:33;;;;;;;21.17;13.43;;;;;;;;;;5086192;28;20043;-62
2022/03/02 11:17:17;;;;;;;21.27;13.68;;;;;;;;;;5093688;28;20032;-62
2022/03/02 11:19:46;;;;;;;21.33;14.18;;;16.00;99.90;;;;;;5093772;28;20039;-63
2022/03/02 11:22:13;;;;;;;20.13;13.25;;;;;;;;;;5094010;28;20421;-63
2022/03/02 11:24:40;;;;;;;20.00;13.48;;;;;;;;;;5093705;28;20093;-63
2022/03/02 11:27:06;;;;;;;23.08;14.95;;;;;;;;;;5093633;28;20047;-63
2022/03/02 11:29:33;;;;;;;21.33;13.82;;;;;;;;;;5092420;28;20089;-63
2022/03/02 11:31:59;;;;;;;21.88;13.75;;;;;;;;;;5092623;28;20118;-63
2022/03/02 11:34:30;;;;;;;18.85;13.23;;;15.90;99.30;;;;;;5093434;28;20036;-63
2022/03/02 11:36:58;;;;;;;20.55;14.10;;;;;;;;;;5093308;28;20135;-63
2022/03/02 11:39:25;;;;;;;22.65;14.95;;;16.00;99.00;;;;;;5093154;28;20044;-64
2022/03/02 11:41:54;;;;;;;19.95;13.48;;;16.20;99.20;;;;;;5093407;28;20058;-63
2022/03/02 11:44:31;;;;;;;22.10;14.00;;;16.20;97.60;;;;;;5095463;28;20093;-63
2022/03/02 11:46:58;;;;;;;21.80;14.02;;;;;;;;;;5093347;28;20050;-64
2022/03/02 11:49:44;;;;;;;20.25;14.38;;;;;;;;;;5093498;28;20048;-63
2022/03/02 11:52:14;;;;;;;19.10;13.80;;;16.30;98.50;;;;;;5093293;28;20129;-64
2022/03/02 11:54:45;;;;;;;19.13;13.52;;;16.50;98.40;;;;;;5093095;28;20040;-63
2022/03/02 11:57:13;;;;;;;18.58;13.85;;;;;;;;;;5093556;28;20115;-64
2022/03/02 11:59:39;;;;;;;19.70;13.75;;;;;;;;;;5093230;28;20982;-64
2022/03/02 12:02:14;;;;;;;20.63;15.00;;;;;;;;;;5093292;28;20043;-63
2022/03/02 12:04:40;;;;;;;21.23;14.98;;;;;;;;;;5092904;28;20044;-64
2022/03/02 12:07:08;;;;;;;18.38;14.00;;;;;;;;;;5093277;28;20128;-64
2022/03/02 12:09:38;;;;;;;21.33;14.77;;;17.30;96.50;;;;;;5093002;28;20115;-64
2022/03/02 12:12:07;;;;;;;21.20;15.45;;;;;;;;;;5092972;28;20414;-63
2022/03/02 12:14:50;;;;;;;19.17;13.75;;;17.20;97.30;;;;;;5092618;28;20414;-64
2022/03/02 12:17:16;;;;;;;;;;;;;;;;;;5093599;28;20040;-64
2022/03/02 12:19:44;;;;;;;19.60;13.75;;;17.50;97.50;;;;;;5092878;28;19920;-64
2022/03/02 12:22:12;;;;;;;20.67;13.73;;;;;;;;;;5092834;28;20032;-64
2022/03/02 12:24:39;;;;;;;19.70;13.68;;;;;;;;;;5091879;28;20048;-64
2022/03/02 12:27:10;;;;;;;20.13;13.63;;;;;;;;;;5092860;28;20132;-64
2022/03/02 12:29:40;;;;;;;18.67;14.02;;;18.30;95.40;;;;;;5091268;28;20056;-63
2022/03/02 12:32:15;;;;;;;16.70;12.68;;;18.70;94.80;;;;;;5092666;28;20043;-64
2022/03/02 12:34:46;;;;;;;23.58;13.80;;;;;;;;;;5090784;28;20444;-63
2022/03/02 12:37:13;;;;;;;19.52;14.40;;;;;;;;;;5092429;28;20110;-64
2022/03/02 12:39:40;;;;;;;16.58;13.25;;;18.70;91.80;;;;;;5092636;28;20028;-63
2022/03/02 12:42:10;;;;;;;19.75;13.65;;;18.00;91.10;;;;;;5092331;28;20032;-64
2022/03/02 12:44:38;;;;;;;19.83;13.75;;;;;;;;;;5092341;28;20024;-63
2022/03/02 12:47:06;;;;;;;19.10;13.75;;;;;;;;;;5091970;28;20078;-64
2022/03/02 12:49:34;;;;;;;18.40;13.45;;;17.10;91.70;;;;;;5092242;28;20046;-64
2022/03/02 12:52:00;;;;;;;19.05;13.48;;;;;;;;;;5091969;28;20042;-64
2022/03/02 12:54:26;;;;;;;18.73;13.90;;;;;;;;;;5092029;28;20046;-64
2022/03/02 12:56:52;;;;;;;18.92;13.80;;;;;;;;;;5092217;28;20051;-64
2022/03/02 12:59:19;;;;;;;20.98;14.50;;;;;;;;;;5092213;28;20036;-64
2022/03/02 13:01:45;;;;;;;20.92;14.45;;;19.70;90.40;;;;;;5092047;28;20031;-64
2022/03/02 13:04:14;;;;;;;18.55;13.40;;;;;;;;;;5092136;28;20648;-64
2022/03/02 13:06:47;;;;;;;20.58;14.15;;;19.90;90.50;;;;;;5088386;28;20097;-64
2022/03/02 13:09:16;;;;;;;19.80;14.43;;;20.40;90.40;;;;;;5092124;28;20048;-64
2022/03/02 13:11:42;;;;;;;19.98;14.23;;;;;;;;;;5092673;28;20039;-64
2022/03/02 13:14:36;;;;;;;19.60;14.05;;;20.50;88.90;;;;;;5091847;28;20543;-64
2022/03/02 13:17:16;;;;;;;17.38;13.20;;;21.30;90.40;;;;;;5091586;28;20402;-64
2022/03/02 13:19:47;;;;;;;17.95;14.07;;;22.70;86.20;;;;;;5091434;28;20057;-64
2022/03/02 13:22:32;;;;;;;20.00;13.32;;;21.90;86.20;;;;;;5091245;28;20185;-64
2022/03/02 13:25:06;;;;;;;18.17;13.95;;;;;;;;;;5090224;28;20048;-64
2022/03/02 13:27:32;;;;;;;19.50;14.90;;;;;;;;;;5091392;28;20553;-64
2022/03/02 13:29:58;;;;;;;21.45;13.80;;;;;;;;;;5091217;28;20044;-64
2022/03/02 13:32:52;;;;;;;17.50;13.65;;;;;;;;;;5091643;28;20452;-64
2022/03/02 13:35:20;;;;;;;17.80;13.70;;;24.10;84.00;;;;;;5083085;28;20044;-64
2022/03/02 13:37:56;;;;;;;17.50;12.10;;;;;;;;;;5090651;28;20056;-64
2022/03/02 13:40:34;;;;;;;18.67;13.73;;;;;;;;;;5091120;28;20047;-64
2022/03/02 13:43:06;;;;;;;16.73;13.13;;;25.60;76.90;;;;;;5090910;28;20115;-64
2022/03/02 13:45:36;;;;;;;18.67;14.13;;;26.30;76.90;;;;;;5091406;28;20122;-64
2022/03/02 13:48:22;;;;;;;18.98;13.45;;;;;;;;;;5091500;28;20043;-65
2022/03/02 13:50:54;;;;;;;17.83;13.23;;;;;;;;;;5090442;28;20127;-65
2022/03/02 13:53:20;;;;;;;;;;;;;;;;;;5091863;28;20043;-64
2022/03/02 13:55:47;;;;;;;18.33;14.43;;;25.20;85.30;;;;;;5090898;28;20011;-65
2022/03/02 13:58:21;;;;;;;17.10;13.75;;;;;;;;;;5090968;28;20523;-64
2022/03/02 14:00:47;;;;;;;16.98;13.43;;;25.60;85.30;;;;;;5091110;28;20122;-65
2022/03/02 14:03:29;;;;;;;15.95;12.75;;;25.60;75.30;;;;;;5090776;28;20541;-64
2022/03/02 14:05:55;;;;;;;16.98;13.23;;;25.90;84.30;;;;;;5090791;28;20032;-64
2022/03/02 14:08:21;;;;;;;17.77;13.25;;;;;;;;;;5091029;28;20498;-65